• Join FlightAware (Why Join?)
  • Login
  • US Flag 
06:09PM EDT


 

Airport Tracker/Info


-or-


 

Live Flight TrackerFlight Track Log ✈ N288PA ✈ 01-May-2013 ✈ KGCN - KHII

Flight Track Log - Related Links

Times and Time Zones

All times are in EDT time to prevent confusion due to time zone crossing. See the N288PA flight status page for this flight to view local times or setup timezone preferences in your user account.

Time Position Orientation Groundspeed Altitude Reporting Facility
EDT Latitude Longitude Course Direction KTS MPH feet Rate Location/Type
10:35PM 35.8478 -112.3181 237° Southwest 97 112 8,300  Level Los Angeles Center
10:36PM 35.8325 -112.3461 236° Southwest 99 114 8,500 180 Climbing Los Angeles Center
10:37PM 35.9003 -112.3405 255° West  Level FlightAware Approximate
10:37PM 35.8178 -112.3753 238° Southwest 99 114 8,700  Level Los Angeles Center
10:38PM 35.8925 -112.3753 255° West  Level FlightAware Approximate
10:38PM 35.8017 -112.4044 236° Southwest 101 116 9,000  Level Los Angeles Center
10:39PM 35.8848 -112.4102 255° West  Level FlightAware Approximate
10:39PM 35.7817 -112.4308 227° Southwest 104 120 9,000  Level Los Angeles Center
10:40PM 35.7622 -112.4661 236° Southwest 119 137 8,900  Descending Los Angeles Center
10:41PM 35.7361 -112.5031 229° Southwest 120 138 9,000  Climbing Los Angeles Center
10:42PM 35.7169 -112.5364 235° Southwest 119 137 9,000  Level Los Angeles Center
10:43PM 35.6972 -112.5700 234° Southwest 121 139 9,000 -60 Level Los Angeles Center
10:44PM 35.6739 -112.6014 228° Southwest 125 144 8,900  Descending Los Angeles Center
10:45PM 35.6544 -112.6358 235° Southwest 118 136 9,000  Climbing Los Angeles Center
10:46PM 35.6361 -112.6678 235° Southwest 116 133 9,000  Level Los Angeles Center
10:47PM 35.6169 -112.7008 235° Southwest 117 135 9,000  Level Los Angeles Center
10:53PM 35.5010 -112.8880 235° Southwest 110 127  Descending FlightAware
10:54PM 35.4920 -112.9040 235° Southwest 108 124 600 Level FlightAware
10:54PM 35.4860 -112.9150 236° Southwest 108 124 600 Level FlightAware
10:55PM 35.4740 -112.9330 231° Southwest 112 129 600 Level FlightAware
10:55PM 35.4640 -112.9470 229° Southwest 111 128 660 Level FlightAware
10:55PM 35.4550 -112.9600 230° Southwest 114 131 660 Level FlightAware
10:56PM 35.4480 -112.9740 238° Southwest 116 133 720 Level FlightAware
10:56PM 35.4370 -112.9940 236° Southwest 124 143 720 Level FlightAware
10:57PM 35.4300 -113.0070 237° Southwest 116 133 780 Level FlightAware
10:58PM 35.4150 -113.0300 231° Southwest 109 125 780 Level FlightAware
10:58PM 35.4080 -113.0410 232° Southwest 109 125 840 Level FlightAware
10:59PM 35.3970 -113.0550 226° Southwest 113 130 900 Level FlightAware
10:59PM 35.3830 -113.0740 228° Southwest 118 136 960 Level FlightAware
11:00PM 35.3750 -113.0890 237° Southwest 118 136 1,020 Level FlightAware
11:00PM 35.3650 -113.1080 237° Southwest 117 135 1,080 Level FlightAware
11:01PM 35.3550 -113.1230 231° Southwest 127 146 1,140 Level FlightAware
11:01PM 35.3470 -113.1420 243° Southwest 125 144 1,200 Level FlightAware
11:02PM 35.3380 -113.1540 227° Southwest 126 145 1,320 Level FlightAware
11:02PM 35.3320 -113.1640 234° Southwest 127 146 1,380 Level FlightAware
11:02PM 35.3210 -113.1800 230° Southwest 126 145 1,440 Level FlightAware
11:03PM 35.3090 -113.2000 234° Southwest 121 139 1,560 Level FlightAware
11:03PM 35.2960 -113.2180 228° Southwest 113 130 1,800 Level FlightAware
11:04PM 35.2880 -113.2290 228° Southwest 114 131 2,040 Level FlightAware
11:04PM 35.2800 -113.2400 228° Southwest 114 131 2,220 Level FlightAware
11:05PM 35.2680 -113.2680 242° Southwest 119 137 2,520 Level FlightAware
11:06PM 35.2550 -113.2910 235° Southwest 131 151 3,180 Level FlightAware
11:06PM 35.2420 -113.3060 223° Southwest 122 140 4,140 Level FlightAware
11:07PM 35.2330 -113.3170 225° Southwest 122 140 5,400 Level FlightAware
11:08PM 35.2092 -113.3536 225° Southwest 123 142 9,000 3,600 Climbing Los Angeles Center
11:09PM 35.1892 -113.3864 233° Southwest 120 138 9,000  Level Los Angeles Center
11:10PM 35.1675 -113.4167 229° Southwest 120 138 9,000  Level Los Angeles Center
11:11PM 35.1447 -113.4569 235° Southwest 121 139 9,000  Level Los Angeles Center
11:12PM 35.1236 -113.4986 238° Southwest 120 138 9,000  Level Los Angeles Center
11:13PM 35.1006 -113.5258 224° Southwest 117 135 9,000  Level Los Angeles Center
11:14PM 35.0767 -113.5567 227° Southwest 123 142 9,000  Level Los Angeles Center
11:15PM 35.0558 -113.5889 232° Southwest 122 140 9,000  Level Los Angeles Center
11:16PM 35.0400 -113.6267 243° Southwest 124 143 9,000  Level Los Angeles Center
11:17PM 35.0164 -113.6639 232° Southwest 118 136 9,000  Level Los Angeles Center
11:18PM 34.9956 -113.6928 229° Southwest 115 132 9,000  Level Los Angeles Center
11:19PM 34.9756 -113.7228 231° Southwest 114 131 9,000  Level Los Angeles Center
11:20PM 34.9583 -113.7522 234° Southwest 110 127 9,000  Level Los Angeles Center
11:21PM 34.9406 -113.7822 234° Southwest 109 125 9,000  Level Los Angeles Center
11:22PM 34.9197 -113.8153 232° Southwest 115 132 9,000  Level Los Angeles Center
11:23PM 34.8950 -113.8564 234° Southwest 122 140 9,000  Level Los Angeles Center
11:25PM 34.8725 -113.8906 231° Southwest 126 145 9,000  Level Los Angeles Center
11:26PM 34.8517 -113.9194 229° Southwest 121 139 9,000  Level Los Angeles Center
11:27PM 34.8331 -113.9506 234° Southwest 115 132 9,000  Level Los Angeles Center
11:28PM 34.8119 -113.9808 230° Southwest 116 133 9,000  Level Los Angeles Center
11:29PM 34.7928 -114.0133 234° Southwest 118 136 9,000 -420 Level Los Angeles Center
11:31PM 34.7511 -114.0803 233° Southwest 113 130 7,800 -600 Descending Los Angeles Center